createdAt,value
2023-02-05T00:02:13.321Z,98775.00
2023-02-05T00:04:42.691Z,98777.00
2023-02-05T00:07:11.960Z,98783.00
2023-02-05T00:09:42.021Z,98786.00
2023-02-05T00:12:11.153Z,98794.00
2023-02-05T00:14:40.351Z,98807.00
2023-02-05T00:17:09.576Z,98808.00
2023-02-05T00:19:38.733Z,98819.00
2023-02-05T00:22:07.884Z,98818.00
2023-02-05T00:24:37.091Z,98824.00
2023-02-05T00:27:06.219Z,98821.00
2023-02-05T00:29:35.472Z,98826.00
2023-02-05T00:32:05.143Z,98828.00
2023-02-05T00:34:34.295Z,98833.00
2023-02-05T00:37:03.476Z,98834.00
2023-02-05T00:39:32.704Z,98834.00
2023-02-05T00:42:01.833Z,98840.00
2023-02-05T00:44:30.909Z,98843.00
2023-02-05T00:47:00.098Z,98835.00
2023-02-05T00:49:29.260Z,98842.00
2023-02-05T00:51:58.372Z,98848.00
2023-02-05T00:54:27.575Z,98857.00
2023-02-05T00:56:56.725Z,98859.00
2023-02-05T00:59:25.918Z,98859.00
2023-02-05T01:01:55.059Z,98868.00
2023-02-05T01:04:24.229Z,98862.00
2023-02-05T01:06:53.395Z,98871.00
2023-02-05T01:09:23.659Z,98862.00
2023-02-05T01:11:52.904Z,98870.00
2023-02-05T01:14:22.042Z,98864.00
2023-02-05T01:16:51.136Z,98871.00
2023-02-05T01:19:20.243Z,98869.00
2023-02-05T01:21:49.402Z,98869.00
2023-02-05T01:24:23.605Z,98872.00
2023-02-05T01:26:54.609Z,98875.00
2023-02-05T01:29:24.791Z,98878.00
2023-02-05T01:31:55.648Z,98884.00
2023-02-05T01:34:29.524Z,98885.00
2023-02-05T01:36:58.644Z,98887.00
2023-02-05T01:39:29.481Z,98891.00
2023-02-05T01:42:00.844Z,98901.00
2023-02-05T01:44:32.774Z,98908.00
2023-02-05T01:47:01.875Z,98916.00
2023-02-05T01:49:40.596Z,98922.00
2023-02-05T01:52:15.718Z,98923.00
2023-02-05T01:54:54.155Z,98930.00
2023-02-05T01:57:27.088Z,98916.00
2023-02-05T01:59:56.566Z,98923.00
2023-02-05T02:02:26.766Z,98924.00
2023-02-05T02:05:08.956Z,98936.00
2023-02-05T02:07:38.522Z,98942.00
2023-02-05T02:10:11.062Z,98939.00
2023-02-05T02:12:44.834Z,98932.00
2023-02-05T02:15:26.830Z,98935.00
2023-02-05T02:18:23.748Z,98943.00
2023-02-05T02:21:35.904Z,98942.00
2023-02-05T02:24:17.686Z,98944.00
2023-02-05T02:27:24.527Z,98953.00
2023-02-05T02:30:11.277Z,98957.00
2023-02-05T02:33:08.832Z,98960.00
2023-02-05T02:35:53.067Z,98950.00
2023-02-05T02:39:10.860Z,98960.00
2023-02-05T02:41:55.415Z,98962.00
2023-02-05T02:44:43.095Z,98962.00
2023-02-05T02:47:22.182Z,98960.00
2023-02-05T02:50:10.432Z,98968.00
2023-02-05T02:52:43.221Z,98954.00
2023-02-05T02:55:16.971Z,98958.00
2023-02-05T02:57:49.871Z,98965.00
2023-02-05T03:00:26.135Z,98968.00
2023-02-05T03:03:06.459Z,98969.00
2023-02-05T03:05:38.139Z,98966.00
2023-02-05T03:08:35.153Z,98973.00
2023-02-05T03:11:13.849Z,98978.00
2023-02-05T03:13:45.629Z,98982.00
2023-02-05T03:16:19.710Z,98981.00
2023-02-05T03:18:50.650Z,98975.00
2023-02-05T03:21:47.455Z,98980.00
2023-02-05T03:24:16.764Z,98985.00
2023-02-05T03:26:45.873Z,98987.00
2023-02-05T03:29:30.065Z,98986.00
2023-02-05T03:32:11.442Z,98993.00
2023-02-05T03:35:19.954Z,98991.00
2023-02-05T03:38:38.266Z,98976.00
2023-02-05T03:41:57.181Z,98982.00
2023-02-05T03:44:50.560Z,98986.00
2023-02-05T03:47:42.054Z,98975.00
2023-02-05T03:50:37.144Z,98966.00
2023-02-05T03:53:37.546Z,98968.00
2023-02-05T03:56:41.021Z,98956.00
2023-02-05T03:59:12.588Z,98954.00
2023-02-05T04:01:42.475Z,98959.00
2023-02-05T04:04:11.910Z,98958.00
2023-02-05T04:06:41.171Z,98953.00
2023-02-05T04:09:12.488Z,98945.00
2023-02-05T04:11:41.599Z,98945.00
2023-02-05T04:14:10.734Z,98941.00
2023-02-05T04:16:40.013Z,98937.00
2023-02-05T04:19:09.270Z,98942.00
2023-02-05T04:21:38.329Z,98938.00
2023-02-05T04:24:08.015Z,98928.00
2023-02-05T04:26:37.173Z,98935.00
2023-02-05T04:29:06.508Z,98926.00
2023-02-05T04:31:35.739Z,98924.00
2023-02-05T04:34:06.348Z,98928.00
2023-02-05T04:36:35.685Z,98925.00
2023-02-05T04:39:05.057Z,98920.00
2023-02-05T04:41:34.273Z,98917.00
2023-02-05T04:44:04.786Z,98914.00
2023-02-05T04:46:34.146Z,98912.00
2023-02-05T04:49:03.775Z,98908.00
2023-02-05T04:51:32.988Z,98895.00
2023-02-05T04:54:02.204Z,98901.00
2023-02-05T04:56:31.519Z,98897.00
2023-02-05T04:59:00.718Z,98892.00
2023-02-05T05:01:29.969Z,98878.00
2023-02-05T05:04:00.159Z,98881.00
2023-02-05T05:06:29.436Z,98881.00
2023-02-05T05:08:58.853Z,98867.00
2023-02-05T05:11:28.059Z,98863.00
2023-02-05T05:13:57.245Z,98857.00
2023-02-05T05:16:26.578Z,98856.00
2023-02-05T05:18:55.785Z,98850.00
2023-02-05T05:21:25.021Z,98851.00
2023-02-05T05:23:54.310Z,98833.00
2023-02-05T05:26:23.543Z,98822.00
2023-02-05T05:28:57.791Z,98825.00
2023-02-05T05:31:27.436Z,98816.00
2023-02-05T05:33:57.130Z,98815.00
2023-02-05T05:36:26.385Z,98811.00
2023-02-05T05:38:55.617Z,98809.00
2023-02-05T05:41:44.901Z,98802.00
2023-02-05T05:44:14.269Z,98799.00
2023-02-05T05:46:43.451Z,98795.00
2023-02-05T05:49:12.720Z,98791.00
2023-02-05T05:51:41.898Z,98788.00
2023-02-05T05:54:11.065Z,98781.00
2023-02-05T05:56:40.352Z,98771.00
2023-02-05T05:59:09.532Z,98761.00
2023-02-05T06:01:38.724Z,98754.00
2023-02-05T06:04:08.278Z,98750.00
2023-02-05T06:06:37.717Z,98746.00
2023-02-05T06:09:07.006Z,98735.00
2023-02-05T06:11:36.326Z,98724.00
2023-02-05T06:14:05.662Z,98721.00
2023-02-05T06:16:34.941Z,98711.00
2023-02-05T06:19:04.137Z,98700.00
2023-02-05T06:21:33.398Z,98700.00
2023-02-05T06:24:02.693Z,98700.00
2023-02-05T06:26:32.244Z,98690.00
2023-02-05T06:29:04.177Z,98681.00
2023-02-05T06:31:37.491Z,98680.00
2023-02-05T06:34:06.724Z,98671.00
2023-02-05T06:36:36.016Z,98670.00
2023-02-05T06:39:05.393Z,98667.00
2023-02-05T06:41:34.576Z,98666.00
2023-02-05T06:44:05.168Z,98657.00
2023-02-05T06:46:37.507Z,98652.00
2023-02-05T06:49:06.929Z,98653.00
2023-02-05T06:51:36.091Z,98652.00
2023-02-05T06:54:05.467Z,98650.00
2023-02-05T06:56:35.059Z,98639.00
2023-02-05T06:59:04.401Z,98646.00
2023-02-05T07:01:33.611Z,98637.00
2023-02-05T07:04:02.928Z,98625.00
2023-02-05T07:06:32.164Z,98628.00
2023-02-05T07:09:01.390Z,98620.00
2023-02-05T07:11:30.891Z,98612.00
2023-02-05T07:14:03.522Z,98611.00
2023-02-05T07:16:33.212Z,98613.00
2023-02-05T07:19:02.432Z,98611.00
2023-02-05T07:21:32.152Z,98611.00
2023-02-05T07:24:01.490Z,98603.00
2023-02-05T07:26:30.664Z,98602.00
2023-02-05T07:28:59.829Z,98599.00
2023-02-05T07:31:29.428Z,98592.00
2023-02-05T07:33:58.592Z,98588.00
2023-02-05T07:36:27.683Z,98583.00
2023-02-05T07:38:56.920Z,98579.00
2023-02-05T07:41:27.768Z,98583.00
2023-02-05T07:43:57.012Z,98584.00
2023-02-05T07:46:27.099Z,98581.00
2023-02-05T07:48:57.210Z,98572.00
2023-02-05T07:51:27.151Z,98572.00
2023-02-05T07:53:57.003Z,98570.00
2023-02-05T07:56:26.823Z,98568.00
2023-02-05T07:58:55.896Z,98569.00
2023-02-05T08:01:25.115Z,98570.00
2023-02-05T08:03:54.427Z,98572.00
2023-02-05T08:06:23.563Z,98563.00
2023-02-05T08:08:52.697Z,98567.00
2023-02-05T08:11:21.923Z,98563.00
2023-02-05T08:13:51.022Z,98563.00
2023-02-05T08:16:20.412Z,98567.00
2023-02-05T08:18:52.316Z,98568.00
2023-02-05T08:21:22.801Z,98555.00
2023-02-05T08:23:52.441Z,98552.00
2023-02-05T08:26:21.645Z,98557.00
2023-02-05T08:28:50.912Z,98557.00
2023-02-05T08:31:21.298Z,98557.00
2023-02-05T08:33:53.860Z,98557.00
2023-02-05T08:36:23.582Z,98550.00
2023-02-05T08:38:52.755Z,98549.00
2023-02-05T08:41:21.894Z,98552.00
2023-02-05T08:43:53.000Z,98548.00
2023-02-05T08:46:37.266Z,98548.00
2023-02-05T08:49:12.937Z,98550.00
2023-02-05T08:51:42.064Z,98551.00
2023-02-05T08:54:14.119Z,98551.00
2023-02-05T08:56:47.524Z,98553.00
2023-02-05T08:59:16.711Z,98550.00
2023-02-05T09:01:46.589Z,98554.00
2023-02-05T09:04:19.707Z,98547.00
2023-02-05T09:06:49.500Z,98543.00
2023-02-05T09:09:19.317Z,98548.00
2023-02-05T09:11:49.560Z,98548.00
2023-02-05T09:14:18.890Z,98546.00
2023-02-05T09:16:48.080Z,98546.00
2023-02-05T09:19:17.350Z,98541.00
2023-02-05T09:21:46.456Z,98540.00
2023-02-05T09:24:15.610Z,98546.00
2023-02-05T09:26:44.684Z,98544.00
2023-02-05T09:29:13.790Z,98547.00
2023-02-05T09:31:43.467Z,98551.00
2023-02-05T09:34:14.639Z,98546.00
2023-02-05T09:36:43.979Z,98555.00
2023-02-05T09:39:25.614Z,98542.00
2023-02-05T09:42:30.173Z,98551.00
2023-02-05T09:45:17.902Z,98545.00
2023-02-05T09:48:13.857Z,98552.00
2023-02-05T09:50:44.562Z,98549.00
2023-02-05T09:53:20.658Z,98549.00
2023-02-05T09:55:51.013Z,98549.00
2023-02-05T09:58:34.130Z,98545.00
2023-02-05T10:01:23.788Z,98540.00
2023-02-05T10:04:00.987Z,98542.00
2023-02-05T10:07:04.478Z,98541.00
2023-02-05T10:09:55.887Z,98554.00
2023-02-05T10:12:31.169Z,98544.00
2023-02-05T10:15:24.334Z,98536.00
2023-02-05T10:18:36.224Z,98544.00
2023-02-05T10:21:20.595Z,98540.00
2023-02-05T10:24:29.744Z,98548.00
2023-02-05T10:27:25.512Z,98540.00
2023-02-05T10:30:54.338Z,98531.00
2023-02-05T10:33:44.789Z,98542.00
2023-02-05T10:36:16.733Z,98543.00
2023-02-05T10:38:47.947Z,98550.00
2023-02-05T10:41:40.838Z,98545.00
2023-02-05T10:44:39.961Z,98558.00
2023-02-05T10:47:37.124Z,98562.00
2023-02-05T10:50:48.491Z,98564.00
2023-02-05T10:53:23.606Z,98563.00
2023-02-05T10:55:53.159Z,98564.00
2023-02-05T10:58:40.693Z,98564.00
2023-02-05T11:01:21.330Z,98557.00
2023-02-05T11:04:05.145Z,98554.00
2023-02-05T11:06:46.836Z,98555.00
2023-02-05T11:09:36.801Z,98554.00
2023-02-05T11:12:18.607Z,98554.00
2023-02-05T11:15:01.203Z,98561.00
2023-02-05T11:17:39.803Z,98561.00
2023-02-05T11:20:33.444Z,98557.00
2023-02-05T11:23:23.451Z,98561.00
2023-02-05T11:26:22.184Z,98569.00
2023-02-05T11:28:51.947Z,98571.00
2023-02-05T11:31:21.693Z,98566.00
2023-02-05T11:33:53.465Z,98560.00
2023-02-05T11:36:27.308Z,98560.00
2023-02-05T11:38:58.105Z,98553.00
2023-02-05T11:41:57.414Z,98564.00
2023-02-05T11:44:27.257Z,98565.00
2023-02-05T11:47:01.464Z,98565.00
2023-02-05T11:49:43.037Z,98571.00
2023-02-05T11:52:16.505Z,98581.00
2023-02-05T11:54:50.321Z,98577.00
2023-02-05T11:57:22.453Z,98577.00
2023-02-05T12:00:10.153Z,98590.00
2023-02-05T12:02:42.737Z,98582.00
2023-02-05T12:05:14.743Z,98591.00
2023-02-05T12:08:09.378Z,98585.00
2023-02-05T12:11:16.444Z,98590.00
2023-02-05T12:14:08.882Z,98590.00
2023-02-05T12:17:03.216Z,98579.00
2023-02-05T12:19:57.849Z,98589.00
2023-02-05T12:23:26.036Z,98589.00
2023-02-05T12:26:00.483Z,98594.00
2023-02-05T12:29:06.008Z,98599.00
2023-02-05T12:31:59.471Z,98597.00
2023-02-05T12:35:03.550Z,98592.00
2023-02-05T12:38:21.201Z,98600.00
2023-02-05T12:41:01.849Z,98602.00
2023-02-05T12:44:26.923Z,98607.00
2023-02-05T12:47:47.341Z,98614.00
2023-02-05T12:50:41.129Z,98626.00
2023-02-05T12:54:32.943Z,98626.00
2023-02-05T12:57:16.526Z,98625.00
2023-02-05T13:00:14.701Z,98632.00
2023-02-05T13:02:50.256Z,98635.00
2023-02-05T13:05:39.305Z,98643.00
2023-02-05T13:08:34.356Z,98633.00
2023-02-05T13:11:20.203Z,98644.00
2023-02-05T13:14:29.648Z,98643.00
2023-02-05T13:17:13.427Z,98660.00
2023-02-05T13:19:55.757Z,98652.00
2023-02-05T13:22:49.900Z,98652.00
2023-02-05T13:25:41.161Z,98655.00
2023-02-05T13:28:46.192Z,98656.00
2023-02-05T13:31:39.608Z,98660.00
2023-02-05T13:34:17.508Z,98658.00
2023-02-05T13:37:31.364Z,98669.00
2023-02-05T13:40:39.957Z,98669.00
2023-02-05T13:43:29.956Z,98660.00
2023-02-05T13:46:37.240Z,98666.00
2023-02-05T13:49:43.116Z,98671.00
2023-02-05T13:52:58.496Z,98664.00
2023-02-05T13:56:03.057Z,98669.00
2023-02-05T13:58:51.624Z,98665.00
2023-02-05T14:01:55.247Z,98668.00
2023-02-05T14:04:49.755Z,98664.00
2023-02-05T14:07:46.768Z,98675.00
2023-02-05T14:10:32.764Z,98670.00
2023-02-05T14:13:35.616Z,98671.00
2023-02-05T14:16:37.227Z,98670.00
2023-02-05T14:19:22.739Z,98671.00
2023-02-05T14:22:11.463Z,98670.00
2023-02-05T14:24:50.774Z,98666.00
2023-02-05T14:27:32.460Z,98662.00
2023-02-05T14:30:47.084Z,98660.00
2023-02-05T14:33:44.946Z,98666.00
2023-02-05T14:36:26.460Z,98659.00
2023-02-05T14:39:07.439Z,98662.00
2023-02-05T14:41:59.939Z,98659.00
2023-02-05T14:44:44.257Z,98660.00
2023-02-05T14:47:35.663Z,98666.00
2023-02-05T14:50:28.909Z,98680.00
2023-02-05T14:53:04.285Z,98678.00
2023-02-05T14:55:44.493Z,98681.00
2023-02-05T14:58:34.002Z,98675.00
2023-02-05T15:01:45.934Z,98667.00
2023-02-05T15:04:28.063Z,98668.00
2023-02-05T15:07:02.336Z,98670.00
2023-02-05T15:09:43.748Z,98675.00
2023-02-05T15:12:45.011Z,98670.00
2023-02-05T15:15:34.282Z,98667.00
2023-02-05T15:18:17.490Z,98672.00
2023-02-05T15:20:50.264Z,98667.00
2023-02-05T15:23:41.578Z,98684.00
2023-02-05T15:27:17.276Z,98683.00
2023-02-05T15:29:59.301Z,98686.00
2023-02-05T15:32:42.646Z,98678.00
2023-02-05T15:35:43.508Z,98690.00
2023-02-05T15:38:47.354Z,98685.00
2023-02-05T15:41:17.946Z,98691.00
2023-02-05T15:44:04.584Z,98688.00
2023-02-05T15:46:35.077Z,98683.00
2023-02-05T15:49:06.737Z,98684.00
2023-02-05T15:51:39.008Z,98684.00
2023-02-05T15:54:09.292Z,98683.00
2023-02-05T15:56:43.811Z,98672.00
2023-02-05T15:59:14.729Z,98666.00
2023-02-05T16:02:08.288Z,98664.00
2023-02-05T16:04:42.227Z,98667.00
2023-02-05T16:07:37.076Z,98669.00
2023-02-05T16:10:21.504Z,98663.00
2023-02-05T16:13:15.310Z,98661.00
2023-02-05T16:16:16.388Z,98680.00
2023-02-05T16:18:56.645Z,98674.00
2023-02-05T16:21:37.317Z,98677.00
2023-02-05T16:24:29.208Z,98678.00
2023-02-05T16:27:28.661Z,98679.00
2023-02-05T16:30:08.321Z,98679.00
2023-02-05T16:32:45.442Z,98675.00
2023-02-05T16:35:34.031Z,98684.00
2023-02-05T16:38:09.781Z,98688.00
2023-02-05T16:40:44.347Z,98684.00
2023-02-05T16:43:32.744Z,98685.00
2023-02-05T16:46:10.632Z,98680.00
2023-02-05T16:48:57.250Z,98673.00
2023-02-05T16:51:47.779Z,98679.00
2023-02-05T16:54:20.161Z,98682.00
2023-02-05T16:57:17.500Z,98683.00
2023-02-05T17:00:03.712Z,98686.00
2023-02-05T17:02:42.941Z,98691.00
2023-02-05T17:05:38.022Z,98697.00
2023-02-05T17:08:11.115Z,98691.00
2023-02-05T17:10:55.591Z,98688.00
2023-02-05T17:13:39.792Z,98691.00
2023-02-05T17:16:32.955Z,98697.00
2023-02-05T17:19:23.717Z,98694.00
2023-02-05T17:22:15.468Z,98694.00
2023-02-05T17:24:49.467Z,98706.00
2023-02-05T17:27:32.824Z,98699.00
2023-02-05T17:30:02.685Z,98692.00
2023-02-05T17:32:34.073Z,98693.00
2023-02-05T17:35:03.270Z,98698.00
2023-02-05T17:37:32.562Z,98701.00
2023-02-05T17:40:01.708Z,98705.00
2023-02-05T17:42:32.277Z,98700.00
2023-02-05T17:45:01.447Z,98702.00
2023-02-05T17:47:30.680Z,98704.00
2023-02-05T17:49:59.936Z,98702.00
2023-02-05T17:52:29.128Z,98696.00
2023-02-05T17:54:58.284Z,98701.00
2023-02-05T17:57:27.781Z,98698.00
2023-02-05T17:59:57.739Z,98684.00
2023-02-05T18:02:27.626Z,98681.00
2023-02-05T18:04:56.817Z,98684.00
2023-02-05T18:07:47.449Z,98677.00
2023-02-05T18:10:24.788Z,98677.00
2023-02-05T18:12:54.855Z,98675.00
2023-02-05T18:15:26.144Z,98676.00
2023-02-05T18:17:55.553Z,98679.00
2023-02-05T18:20:24.982Z,98684.00
2023-02-05T18:22:54.519Z,98680.00
2023-02-05T18:25:23.704Z,98683.00
2023-02-05T18:27:52.913Z,98677.00
2023-02-05T18:30:22.271Z,98677.00
2023-02-05T18:32:52.825Z,98682.00
2023-02-05T18:35:21.983Z,98681.00
2023-02-05T18:37:51.162Z,98683.00
2023-02-05T18:40:20.278Z,98685.00
2023-02-05T18:42:51.982Z,98686.00
2023-02-05T18:45:21.734Z,98685.00
2023-02-05T18:47:50.880Z,98682.00
2023-02-05T18:50:20.085Z,98683.00
2023-02-05T18:52:49.195Z,98683.00
2023-02-05T18:55:18.479Z,98674.00
2023-02-05T18:57:47.580Z,98677.00
2023-02-05T19:00:17.115Z,98676.00
2023-02-05T19:02:46.513Z,98677.00
2023-02-05T19:05:15.604Z,98669.00
2023-02-05T19:07:46.313Z,98672.00
2023-02-05T19:10:15.542Z,98674.00
2023-02-05T19:12:44.632Z,98659.00
2023-02-05T19:15:13.776Z,98662.00
2023-02-05T19:17:42.905Z,98662.00
2023-02-05T19:20:12.448Z,98654.00
2023-02-05T19:22:41.596Z,98661.00
2023-02-05T19:25:10.839Z,98656.00
2023-02-05T19:27:41.240Z,98655.00
2023-02-05T19:30:12.902Z,98651.00
2023-02-05T19:32:42.324Z,98649.00
2023-02-05T19:35:11.426Z,98643.00
2023-02-05T19:37:40.493Z,98642.00
2023-02-05T19:40:10.436Z,98648.00
2023-02-05T19:42:39.563Z,98652.00
2023-02-05T19:45:09.347Z,98647.00
2023-02-05T19:47:38.416Z,98649.00
2023-02-05T19:50:07.915Z,98644.00
2023-02-05T19:52:37.028Z,98645.00
2023-02-05T19:55:06.961Z,98635.00
2023-02-05T19:57:36.416Z,98639.00
2023-02-05T20:00:06.361Z,98634.00
2023-02-05T20:02:36.384Z,98637.00
2023-02-05T20:05:05.896Z,98632.00
2023-02-05T20:07:39.147Z,98635.00
2023-02-05T20:10:08.991Z,98633.00
2023-02-05T20:12:38.061Z,98628.00
2023-02-05T20:15:07.682Z,98632.00
2023-02-05T20:17:36.963Z,98642.00
2023-02-05T20:20:14.139Z,98638.00
2023-02-05T20:22:44.954Z,98637.00
2023-02-05T20:25:14.153Z,98638.00
2023-02-05T20:27:43.247Z,98638.00
2023-02-05T20:30:34.797Z,98649.00
2023-02-05T20:33:04.535Z,98642.00
2023-02-05T20:35:36.885Z,98642.00
2023-02-05T20:38:06.124Z,98637.00
2023-02-05T20:40:35.432Z,98643.00
2023-02-05T20:43:05.709Z,98639.00
2023-02-05T20:45:34.779Z,98635.00
2023-02-05T20:48:04.015Z,98642.00
2023-02-05T20:50:33.445Z,98652.00
2023-02-05T20:53:02.703Z,98643.00
2023-02-05T20:55:31.812Z,98649.00
2023-02-05T20:58:01.244Z,98648.00
2023-02-05T21:00:30.652Z,98653.00
2023-02-05T21:02:59.743Z,98655.00
2023-02-05T21:05:28.803Z,98656.00
2023-02-05T21:07:57.861Z,98652.00
2023-02-05T21:10:27.227Z,98656.00
2023-02-05T21:12:56.277Z,98658.00
2023-02-05T21:15:25.354Z,98663.00
2023-02-05T21:17:54.610Z,98663.00
2023-02-05T21:20:23.713Z,98659.00
2023-02-05T21:22:52.805Z,98656.00
2023-02-05T21:25:21.906Z,98660.00
2023-02-05T21:27:51.775Z,98662.00
2023-02-05T21:30:21.376Z,98669.00
2023-02-05T21:32:54.106Z,98668.00
2023-02-05T21:35:23.627Z,98676.00
2023-02-05T21:37:52.812Z,98666.00
2023-02-05T21:40:22.312Z,98665.00
2023-02-05T21:42:51.536Z,98674.00
2023-02-05T21:45:20.726Z,98675.00
2023-02-05T21:47:49.821Z,98676.00
2023-02-05T21:50:19.129Z,98690.00
2023-02-05T21:52:48.221Z,98689.00
2023-02-05T21:55:17.418Z,98689.00
2023-02-05T21:57:46.543Z,98703.00
2023-02-05T22:00:16.125Z,98695.00
2023-02-05T22:02:45.251Z,98694.00
2023-02-05T22:05:14.355Z,98693.00
2023-02-05T22:07:43.486Z,98692.00
2023-02-05T22:10:12.574Z,98693.00
2023-02-05T22:12:41.664Z,98693.00
2023-02-05T22:15:14.315Z,98698.00
2023-02-05T22:17:43.474Z,98702.00
2023-02-05T22:20:13.539Z,98703.00
2023-02-05T22:22:42.639Z,98711.00
2023-02-05T22:25:11.792Z,98707.00
2023-02-05T22:27:41.028Z,98717.00
2023-02-05T22:30:11.197Z,98713.00
2023-02-05T22:32:40.508Z,98719.00
2023-02-05T22:35:10.101Z,98713.00
2023-02-05T22:37:39.154Z,98720.00
2023-02-05T22:40:09.175Z,98717.00
2023-02-05T22:42:38.276Z,98725.00
2023-02-05T22:45:07.789Z,98730.00
2023-02-05T22:47:36.920Z,98734.00
2023-02-05T22:50:07.048Z,98743.00
2023-02-05T22:52:36.109Z,98744.00
2023-02-05T22:55:05.334Z,98738.00
2023-02-05T22:57:34.428Z,98747.00
2023-02-05T23:00:04.131Z,98746.00
2023-02-05T23:02:33.167Z,98756.00
2023-02-05T23:05:02.332Z,98754.00
2023-02-05T23:07:31.489Z,98760.00
2023-02-05T23:10:00.558Z,98756.00
2023-02-05T23:12:29.683Z,98759.00
2023-02-05T23:14:58.790Z,98765.00
2023-02-05T23:17:27.903Z,98766.00
2023-02-05T23:19:57.027Z,98779.00
2023-02-05T23:22:26.154Z,98767.00
2023-02-05T23:24:55.207Z,98780.00
2023-02-05T23:27:24.962Z,98775.00
2023-02-05T23:29:55.269Z,98775.00
2023-02-05T23:32:24.832Z,98782.00
2023-02-05T23:34:53.932Z,98787.00
2023-02-05T23:37:23.164Z,98783.00
2023-02-05T23:39:52.312Z,98778.00
2023-02-05T23:42:21.368Z,98783.00
2023-02-05T23:44:50.434Z,98784.00
2023-02-05T23:47:19.683Z,98788.00
2023-02-05T23:49:48.724Z,98792.00
2023-02-05T23:52:17.920Z,98792.00
2023-02-05T23:54:47.018Z,98788.00
2023-02-05T23:57:16.153Z,98798.00
2023-02-05T23:59:45.243Z,98799.00
